sensor_id;sensor_type;location;lat;lon;timestamp;P1;P2;P0
73517;PMS5003;61766;60.318;25.044;2023-04-20T00:01:01;4;4;
73517;PMS5003;61766;60.318;25.044;2023-04-20T00:03:27;6;6;
73517;PMS5003;61766;60.318;25.044;2023-04-20T00:05:52;7;6;
73517;PMS5003;61766;60.318;25.044;2023-04-20T00:08:17;4;4;
73517;PMS5003;61766;60.318;25.044;2023-04-20T00:10:42;5;5;
73517;PMS5003;61766;60.318;25.044;2023-04-20T00:13:07;4;4;
73517;PMS5003;61766;60.318;25.044;2023-04-20T00:15:32;3;3;
73517;PMS5003;61766;60.318;25.044;2023-04-20T00:17:58;6;6;
73517;PMS5003;61766;60.318;25.044;2023-04-20T00:20:23;5;5;
73517;PMS5003;61766;60.318;25.044;2023-04-20T00:22:48;5;5;
73517;PMS5003;61766;60.318;25.044;2023-04-20T00:25:14;8;6;
73517;PMS5003;61766;60.318;25.044;2023-04-20T00:27:39;5;5;
73517;PMS5003;61766;60.318;25.044;2023-04-20T00:30:05;5;5;
73517;PMS5003;61766;60.318;25.044;2023-04-20T00:32:29;8;8;
73517;PMS5003;61766;60.318;25.044;2023-04-20T00:34:55;9;7;
73517;PMS5003;61766;60.318;25.044;2023-04-20T00:37:21;8;7;
73517;PMS5003;61766;60.318;25.044;2023-04-20T00:39:46;6;5;
73517;PMS5003;61766;60.318;25.044;2023-04-20T00:42:11;7;6;
73517;PMS5003;61766;60.318;25.044;2023-04-20T00:44:37;6;6;
73517;PMS5003;61766;60.318;25.044;2023-04-20T00:47:02;7;7;
73517;PMS5003;61766;60.318;25.044;2023-04-20T00:49:28;6;6;
73517;PMS5003;61766;60.318;25.044;2023-04-20T00:51:52;5;5;
73517;PMS5003;61766;60.318;25.044;2023-04-20T00:54:17;5;5;
73517;PMS5003;61766;60.318;25.044;2023-04-20T00:56:43;7;6;
73517;PMS5003;61766;60.318;25.044;2023-04-20T00:59:08;5;5;
73517;PMS5003;61766;60.318;25.044;2023-04-20T01:01:33;6;5;
73517;PMS5003;61766;60.318;25.044;2023-04-20T01:03:58;7;7;
73517;PMS5003;61766;60.318;25.044;2023-04-20T01:06:23;6;6;
73517;PMS5003;61766;60.318;25.044;2023-04-20T01:08:49;5;5;
73517;PMS5003;61766;60.318;25.044;2023-04-20T01:11:14;6;6;
73517;PMS5003;61766;60.318;25.044;2023-04-20T01:13:39;7;6;
73517;PMS5003;61766;60.318;25.044;2023-04-20T01:16:05;4;4;
73517;PMS5003;61766;60.318;25.044;2023-04-20T01:20:55;6;6;
73517;PMS5003;61766;60.318;25.044;2023-04-20T01:23:20;6;6;
73517;PMS5003;61766;60.318;25.044;2023-04-20T01:25:45;6;6;
73517;PMS5003;61766;60.318;25.044;2023-04-20T01:28:11;6;6;
73517;PMS5003;61766;60.318;25.044;2023-04-20T01:30:36;7;6;
73517;PMS5003;61766;60.318;25.044;2023-04-20T01:33:01;7;7;
73517;PMS5003;61766;60.318;25.044;2023-04-20T01:35:27;7;7;
73517;PMS5003;61766;60.318;25.044;2023-04-20T01:37:52;7;7;
73517;PMS5003;61766;60.318;25.044;2023-04-20T01:40:17;7;7;
73517;PMS5003;61766;60.318;25.044;2023-04-20T01:42:42;5;5;
73517;PMS5003;61766;60.318;25.044;2023-04-20T01:45:08;8;7;
73517;PMS5003;61766;60.318;25.044;2023-04-20T01:47:33;8;7;
73517;PMS5003;61766;60.318;25.044;2023-04-20T01:49:58;5;4;
73517;PMS5003;61766;60.318;25.044;2023-04-20T01:52:23;7;7;
73517;PMS5003;61766;60.318;25.044;2023-04-20T01:54:49;5;5;
73517;PMS5003;61766;60.318;25.044;2023-04-20T01:57:14;7;6;
73517;PMS5003;61766;60.318;25.044;2023-04-20T01:59:39;5;5;
73517;PMS5003;61766;60.318;25.044;2023-04-20T02:02:04;8;7;
73517;PMS5003;61766;60.318;25.044;2023-04-20T02:04:30;7;7;
73517;PMS5003;61766;60.318;25.044;2023-04-20T02:06:55;6;6;
73517;PMS5003;61766;60.318;25.044;2023-04-20T02:09:20;8;6;
73517;PMS5003;61766;60.318;25.044;2023-04-20T02:11:46;7;6;
73517;PMS5003;61766;60.318;25.044;2023-04-20T02:14:11;6;6;
73517;PMS5003;61766;60.318;25.044;2023-04-20T02:16:36;5;5;
73517;PMS5003;61766;60.318;25.044;2023-04-20T02:19:02;7;6;
73517;PMS5003;61766;60.318;25.044;2023-04-20T02:21:27;8;8;
73517;PMS5003;61766;60.318;25.044;2023-04-20T02:23:53;6;6;
73517;PMS5003;61766;60.318;25.044;2023-04-20T02:26:18;7;7;
73517;PMS5003;61766;60.318;25.044;2023-04-20T02:28:43;7;6;
73517;PMS5003;61766;60.318;25.044;2023-04-20T02:31:08;6;6;
73517;PMS5003;61766;60.318;25.044;2023-04-20T02:33:34;7;6;
73517;PMS5003;61766;60.318;25.044;2023-04-20T02:35:59;5;5;
73517;PMS5003;61766;60.318;25.044;2023-04-20T02:38:24;8;6;
73517;PMS5003;61766;60.318;25.044;2023-04-20T02:40:49;7;6;
73517;PMS5003;61766;60.318;25.044;2023-04-20T02:43:14;5;5;
73517;PMS5003;61766;60.318;25.044;2023-04-20T02:45:40;6;6;
73517;PMS5003;61766;60.318;25.044;2023-04-20T02:48:05;6;6;
73517;PMS5003;61766;60.318;25.044;2023-04-20T02:50:30;5;5;
73517;PMS5003;61766;60.318;25.044;2023-04-20T02:52:55;5;5;
73517;PMS5003;61766;60.318;25.044;2023-04-20T02:55:21;6;5;
73517;PMS5003;61766;60.318;25.044;2023-04-20T02:57:46;5;5;
73517;PMS5003;61766;60.318;25.044;2023-04-20T03:00:11;6;6;
73517;PMS5003;61766;60.318;25.044;2023-04-20T03:02:36;5;5;
73517;PMS5003;61766;60.318;25.044;2023-04-20T03:05:02;5;5;
73517;PMS5003;61766;60.318;25.044;2023-04-20T03:07:28;5;5;
73517;PMS5003;61766;60.318;25.044;2023-04-20T03:09:53;6;5;
73517;PMS5003;61766;60.318;25.044;2023-04-20T03:12:18;8;7;
73517;PMS5003;61766;60.318;25.044;2023-04-20T03:14:43;8;8;
73517;PMS5003;61766;60.318;25.044;2023-04-20T03:17:08;5;5;
73517;PMS5003;61766;60.318;25.044;2023-04-20T03:19:34;8;8;
73517;PMS5003;61766;60.318;25.044;2023-04-20T03:22:00;6;6;
73517;PMS5003;61766;60.318;25.044;2023-04-20T03:24:25;6;6;
73517;PMS5003;61766;60.318;25.044;2023-04-20T03:26:50;7;5;
73517;PMS5003;61766;60.318;25.044;2023-04-20T03:29:16;7;7;
73517;PMS5003;61766;60.318;25.044;2023-04-20T03:31:42;9;9;
73517;PMS5003;61766;60.318;25.044;2023-04-20T03:34:08;7;7;
73517;PMS5003;61766;60.318;25.044;2023-04-20T03:36:33;5;5;
73517;PMS5003;61766;60.318;25.044;2023-04-20T03:38:58;5;5;
73517;PMS5003;61766;60.318;25.044;2023-04-20T03:41:23;6;5;
73517;PMS5003;61766;60.318;25.044;2023-04-20T03:43:48;5;5;
73517;PMS5003;61766;60.318;25.044;2023-04-20T03:46:14;6;5;
73517;PMS5003;61766;60.318;25.044;2023-04-20T03:48:39;6;6;
73517;PMS5003;61766;60.318;25.044;2023-04-20T03:51:04;6;6;
73517;PMS5003;61766;60.318;25.044;2023-04-20T03:53:30;7;7;
73517;PMS5003;61766;60.318;25.044;2023-04-20T03:55:55;6;6;
73517;PMS5003;61766;60.318;25.044;2023-04-20T03:58:20;6;5;
73517;PMS5003;61766;60.318;25.044;2023-04-20T04:00:45;6;6;
73517;PMS5003;61766;60.318;25.044;2023-04-20T04:03:11;5;4;
73517;PMS5003;61766;60.318;25.044;2023-04-20T04:05:36;6;6;
73517;PMS5003;61766;60.318;25.044;2023-04-20T04:08:02;7;6;
73517;PMS5003;61766;60.318;25.044;2023-04-20T04:10:27;9;8;
73517;PMS5003;61766;60.318;25.044;2023-04-20T04:12:53;6;6;
73517;PMS5003;61766;60.318;25.044;2023-04-20T04:15:18;8;7;
73517;PMS5003;61766;60.318;25.044;2023-04-20T04:17:44;13;12;
73517;PMS5003;61766;60.318;25.044;2023-04-20T04:20:09;6;6;
73517;PMS5003;61766;60.318;25.044;2023-04-20T04:22:34;7;7;
73517;PMS5003;61766;60.318;25.044;2023-04-20T04:24:59;9;9;
73517;PMS5003;61766;60.318;25.044;2023-04-20T04:27:24;6;5;
73517;PMS5003;61766;60.318;25.044;2023-04-20T04:29:50;7;7;
73517;PMS5003;61766;60.318;25.044;2023-04-20T04:32:15;5;5;
73517;PMS5003;61766;60.318;25.044;2023-04-20T04:34:40;9;8;
73517;PMS5003;61766;60.318;25.044;2023-04-20T04:37:05;9;8;
73517;PMS5003;61766;60.318;25.044;2023-04-20T04:39:31;9;6;
73517;PMS5003;61766;60.318;25.044;2023-04-20T04:41:55;6;6;
73517;PMS5003;61766;60.318;25.044;2023-04-20T04:44:20;8;8;
73517;PMS5003;61766;60.318;25.044;2023-04-20T04:46:46;13;11;
73517;PMS5003;61766;60.318;25.044;2023-04-20T04:49:11;8;7;
73517;PMS5003;61766;60.318;25.044;2023-04-20T04:51:36;8;6;
73517;PMS5003;61766;60.318;25.044;2023-04-20T04:54:01;3;3;
73517;PMS5003;61766;60.318;25.044;2023-04-20T04:56:26;4;4;
73517;PMS5003;61766;60.318;25.044;2023-04-20T04:58:52;7;6;
73517;PMS5003;61766;60.318;25.044;2023-04-20T05:01:17;4;4;
73517;PMS5003;61766;60.318;25.044;2023-04-20T05:03:42;5;5;
73517;PMS5003;61766;60.318;25.044;2023-04-20T05:06:08;4;4;
73517;PMS5003;61766;60.318;25.044;2023-04-20T05:08:33;7;7;
73517;PMS5003;61766;60.318;25.044;2023-04-20T05:10:58;6;5;
73517;PMS5003;61766;60.318;25.044;2023-04-20T05:13:23;5;5;
73517;PMS5003;61766;60.318;25.044;2023-04-20T05:15:49;10;9;
73517;PMS5003;61766;60.318;25.044;2023-04-20T05:18:15;7;6;
73517;PMS5003;61766;60.318;25.044;2023-04-20T05:20:40;5;5;
73517;PMS5003;61766;60.318;25.044;2023-04-20T05:23:05;7;6;
73517;PMS5003;61766;60.318;25.044;2023-04-20T05:25:30;5;5;
73517;PMS5003;61766;60.318;25.044;2023-04-20T05:27:55;9;7;
73517;PMS5003;61766;60.318;25.044;2023-04-20T05:30:20;6;6;
73517;PMS5003;61766;60.318;25.044;2023-04-20T05:32:46;7;6;
73517;PMS5003;61766;60.318;25.044;2023-04-20T05:35:11;7;7;
73517;PMS5003;61766;60.318;25.044;2023-04-20T05:37:36;4;4;
73517;PMS5003;61766;60.318;25.044;2023-04-20T05:40:01;5;5;
73517;PMS5003;61766;60.318;25.044;2023-04-20T05:42:26;3;3;
73517;PMS5003;61766;60.318;25.044;2023-04-20T05:44:51;5;5;
73517;PMS5003;61766;60.318;25.044;2023-04-20T05:47:16;6;5;
73517;PMS5003;61766;60.318;25.044;2023-04-20T05:49:41;5;4;
73517;PMS5003;61766;60.318;25.044;2023-04-20T05:52:06;6;6;
73517;PMS5003;61766;60.318;25.044;2023-04-20T05:54:31;4;4;
73517;PMS5003;61766;60.318;25.044;2023-04-20T05:56:56;4;4;
73517;PMS5003;61766;60.318;25.044;2023-04-20T05:59:21;5;4;
73517;PMS5003;61766;60.318;25.044;2023-04-20T06:01:46;3;3;
73517;PMS5003;61766;60.318;25.044;2023-04-20T06:04:11;4;4;
73517;PMS5003;61766;60.318;25.044;2023-04-20T06:06:36;3;3;
73517;PMS5003;61766;60.318;25.044;2023-04-20T06:09:01;4;4;
73517;PMS5003;61766;60.318;25.044;2023-04-20T06:11:26;4;4;
73517;PMS5003;61766;60.318;25.044;2023-04-20T06:13:51;1;1;
73517;PMS5003;61766;60.318;25.044;2023-04-20T06:16:17;3;2;
73517;PMS5003;61766;60.318;25.044;2023-04-20T06:18:42;3;3;
73517;PMS5003;61766;60.318;25.044;2023-04-20T06:21:08;2;2;
73517;PMS5003;61766;60.318;25.044;2023-04-20T06:23:32;2;2;
73517;PMS5003;61766;60.318;25.044;2023-04-20T06:25:57;2;2;
73517;PMS5003;61766;60.318;25.044;2023-04-20T06:28:22;2;2;
73517;PMS5003;61766;60.318;25.044;2023-04-20T06:30:47;3;3;
73517;PMS5003;61766;60.318;25.044;2023-04-20T06:33:12;3;2;
73517;PMS5003;61766;60.318;25.044;2023-04-20T06:35:38;3;2;
73517;PMS5003;61766;60.318;25.044;2023-04-20T06:38:02;3;2;
73517;PMS5003;61766;60.318;25.044;2023-04-20T06:40:27;3;3;
73517;PMS5003;61766;60.318;25.044;2023-04-20T06:42:53;3;3;
73517;PMS5003;61766;60.318;25.044;2023-04-20T06:45:19;2;2;
73517;PMS5003;61766;60.318;25.044;2023-04-20T06:47:45;4;2;
73517;PMS5003;61766;60.318;25.044;2023-04-20T06:50:11;4;2;
73517;PMS5003;61766;60.318;25.044;2023-04-20T06:52:37;2;2;
73517;PMS5003;61766;60.318;25.044;2023-04-20T06:55:03;1;0;
73517;PMS5003;61766;60.318;25.044;2023-04-20T06:57:28;3;3;
73517;PMS5003;61766;60.318;25.044;2023-04-20T06:59:54;2;2;
73517;PMS5003;61766;60.318;25.044;2023-04-20T07:02:20;3;3;
73517;PMS5003;61766;60.318;25.044;2023-04-20T07:04:46;3;3;
73517;PMS5003;61766;60.318;25.044;2023-04-20T07:07:11;3;3;
73517;PMS5003;61766;60.318;25.044;2023-04-20T07:09:37;2;2;
73517;PMS5003;61766;60.318;25.044;2023-04-20T07:12:03;3;3;
73517;PMS5003;61766;60.318;25.044;2023-04-20T07:14:28;2;2;
73517;PMS5003;61766;60.318;25.044;2023-04-20T07:16:54;2;2;
73517;PMS5003;61766;60.318;25.044;2023-04-20T07:19:20;2;2;
73517;PMS5003;61766;60.318;25.044;2023-04-20T07:21:46;2;2;
73517;PMS5003;61766;60.318;25.044;2023-04-20T07:24:12;3;1;
73517;PMS5003;61766;60.318;25.044;2023-04-20T07:26:38;1;1;
73517;PMS5003;61766;60.318;25.044;2023-04-20T07:29:03;2;2;
73517;PMS5003;61766;60.318;25.044;2023-04-20T07:31:29;2;2;
73517;PMS5003;61766;60.318;25.044;2023-04-20T07:33:55;2;2;
73517;PMS5003;61766;60.318;25.044;2023-04-20T07:36:21;3;3;
73517;PMS5003;61766;60.318;25.044;2023-04-20T07:38:46;2;2;
73517;PMS5003;61766;60.318;25.044;2023-04-20T07:41:12;5;4;
73517;PMS5003;61766;60.318;25.044;2023-04-20T07:43:38;2;2;
73517;PMS5003;61766;60.318;25.044;2023-04-20T07:46:04;3;2;
73517;PMS5003;61766;60.318;25.044;2023-04-20T07:48:30;3;3;
73517;PMS5003;61766;60.318;25.044;2023-04-20T07:50:56;3;2;
73517;PMS5003;61766;60.318;25.044;2023-04-20T07:53:21;1;1;
73517;PMS5003;61766;60.318;25.044;2023-04-20T07:55:47;3;3;
73517;PMS5003;61766;60.318;25.044;2023-04-20T07:58:13;2;2;
73517;PMS5003;61766;60.318;25.044;2023-04-20T08:00:39;2;2;
73517;PMS5003;61766;60.318;25.044;2023-04-20T08:03:05;2;2;
73517;PMS5003;61766;60.318;25.044;2023-04-20T08:05:30;2;2;
73517;PMS5003;61766;60.318;25.044;2023-04-20T08:07:56;2;2;
73517;PMS5003;61766;60.318;25.044;2023-04-20T08:10:22;1;1;
73517;PMS5003;61766;60.318;25.044;2023-04-20T08:12:48;1;0;
73517;PMS5003;61766;60.318;25.044;2023-04-20T08:15:14;0;0;
73517;PMS5003;61766;60.318;25.044;2023-04-20T08:17:39;1;1;
73517;PMS5003;61766;60.318;25.044;2023-04-20T08:20:06;0;0;
73517;PMS5003;61766;60.318;25.044;2023-04-20T08:22:31;0;0;
73517;PMS5003;61766;60.318;25.044;2023-04-20T08:24:56;1;1;
73517;PMS5003;61766;60.318;25.044;2023-04-20T08:27:22;1;1;
73517;PMS5003;61766;60.318;25.044;2023-04-20T08:29:48;1;1;
73517;PMS5003;61766;60.318;25.044;2023-04-20T08:32:14;0;0;
73517;PMS5003;61766;60.318;25.044;2023-04-20T08:34:40;1;1;
73517;PMS5003;61766;60.318;25.044;2023-04-20T08:37:05;0;0;
73517;PMS5003;61766;60.318;25.044;2023-04-20T08:39:31;1;1;
73517;PMS5003;61766;60.318;25.044;2023-04-20T08:41:57;1;1;
73517;PMS5003;61766;60.318;25.044;2023-04-20T08:44:23;1;1;
73517;PMS5003;61766;60.318;25.044;2023-04-20T08:46:49;0;0;
73517;PMS5003;61766;60.318;25.044;2023-04-20T08:49:14;1;1;
73517;PMS5003;61766;60.318;25.044;2023-04-20T08:51:41;2;0;
73517;PMS5003;61766;60.318;25.044;2023-04-20T08:54:06;1;1;
73517;PMS5003;61766;60.318;25.044;2023-04-20T08:56:33;0;0;
73517;PMS5003;61766;60.318;25.044;2023-04-20T08:58:57;1;1;
73517;PMS5003;61766;60.318;25.044;2023-04-20T09:01:26;2;1;
73517;PMS5003;61766;60.318;25.044;2023-04-20T09:03:49;2;2;
73517;PMS5003;61766;60.318;25.044;2023-04-20T09:06:15;1;1;
73517;PMS5003;61766;60.318;25.044;2023-04-20T09:08:40;0;0;
73517;PMS5003;61766;60.318;25.044;2023-04-20T09:11:06;1;1;
73517;PMS5003;61766;60.318;25.044;2023-04-20T09:13:32;1;1;
73517;PMS5003;61766;60.318;25.044;2023-04-20T09:18:23;3;1;
73517;PMS5003;61766;60.318;25.044;2023-04-20T09:20:49;1;1;
73517;PMS5003;61766;60.318;25.044;2023-04-20T09:23:15;1;1;
73517;PMS5003;61766;60.318;25.044;2023-04-20T09:25:42;0;0;
73517;PMS5003;61766;60.318;25.044;2023-04-20T09:28:06;0;0;
73517;PMS5003;61766;60.318;25.044;2023-04-20T09:30:38;0;0;
73517;PMS5003;61766;60.318;25.044;2023-04-20T09:33:01;2;2;
73517;PMS5003;61766;60.318;25.044;2023-04-20T09:35:23;3;2;
73517;PMS5003;61766;60.318;25.044;2023-04-20T09:37:49;1;1;
73517;PMS5003;61766;60.318;25.044;2023-04-20T09:40:15;1;1;
73517;PMS5003;61766;60.318;25.044;2023-04-20T09:42:40;1;1;
73517;PMS5003;61766;60.318;25.044;2023-04-20T09:45:07;1;1;
73517;PMS5003;61766;60.318;25.044;2023-04-20T09:47:33;2;2;
73517;PMS5003;61766;60.318;25.044;2023-04-20T09:49:58;1;1;
73517;PMS5003;61766;60.318;25.044;2023-04-20T09:52:23;1;1;
73517;PMS5003;61766;60.318;25.044;2023-04-20T09:54:49;0;0;
73517;PMS5003;61766;60.318;25.044;2023-04-20T09:57:15;1;1;
73517;PMS5003;61766;60.318;25.044;2023-04-20T09:59:41;1;1;
73517;PMS5003;61766;60.318;25.044;2023-04-20T10:02:07;1;1;
73517;PMS5003;61766;60.318;25.044;2023-04-20T10:04:32;1;1;
73517;PMS5003;61766;60.318;25.044;2023-04-20T10:06:57;2;1;
73517;PMS5003;61766;60.318;25.044;2023-04-20T10:09:24;1;1;
73517;PMS5003;61766;60.318;25.044;2023-04-20T10:11:49;0;0;
73517;PMS5003;61766;60.318;25.044;2023-04-20T10:14:15;0;0;
73517;PMS5003;61766;60.318;25.044;2023-04-20T10:16:40;0;0;
73517;PMS5003;61766;60.318;25.044;2023-04-20T10:19:06;1;1;
73517;PMS5003;61766;60.318;25.044;2023-04-20T10:21:32;1;1;
73517;PMS5003;61766;60.318;25.044;2023-04-20T10:23:58;1;1;
73517;PMS5003;61766;60.318;25.044;2023-04-20T10:26:23;1;1;
73517;PMS5003;61766;60.318;25.044;2023-04-20T10:28:49;1;1;
73517;PMS5003;61766;60.318;25.044;2023-04-20T10:31:14;2;2;
73517;PMS5003;61766;60.318;25.044;2023-04-20T10:33:49;1;1;
73517;PMS5003;61766;60.318;25.044;2023-04-20T10:36:06;0;0;
73517;PMS5003;61766;60.318;25.044;2023-04-20T10:38:33;1;0;
73517;PMS5003;61766;60.318;25.044;2023-04-20T10:43:23;0;0;
73517;PMS5003;61766;60.318;25.044;2023-04-20T10:45:49;2;1;
73517;PMS5003;61766;60.318;25.044;2023-04-20T10:48:14;1;1;
73517;PMS5003;61766;60.318;25.044;2023-04-20T10:50:40;2;2;
73517;PMS5003;61766;60.318;25.044;2023-04-20T10:53:07;0;0;
73517;PMS5003;61766;60.318;25.044;2023-04-20T10:55:31;1;1;
73517;PMS5003;61766;60.318;25.044;2023-04-20T10:57:57;2;2;
73517;PMS5003;61766;60.318;25.044;2023-04-20T11:00:26;1;1;
73517;PMS5003;61766;60.318;25.044;2023-04-20T11:02:48;1;1;
73517;PMS5003;61766;60.318;25.044;2023-04-20T11:05:14;1;1;
73517;PMS5003;61766;60.318;25.044;2023-04-20T11:10:06;1;1;
73517;PMS5003;61766;60.318;25.044;2023-04-20T11:14:57;1;1;
73517;PMS5003;61766;60.318;25.044;2023-04-20T11:19:48;1;1;
73517;PMS5003;61766;60.318;25.044;2023-04-20T11:22:20;3;3;
73517;PMS5003;61766;60.318;25.044;2023-04-20T11:24:39;1;1;
73517;PMS5003;61766;60.318;25.044;2023-04-20T11:27:05;1;1;
73517;PMS5003;61766;60.318;25.044;2023-04-20T11:29:31;0;0;
73517;PMS5003;61766;60.318;25.044;2023-04-20T11:31:56;1;1;
73517;PMS5003;61766;60.318;25.044;2023-04-20T11:34:22;1;1;
73517;PMS5003;61766;60.318;25.044;2023-04-20T11:36:48;0;0;
73517;PMS5003;61766;60.318;25.044;2023-04-20T11:39:13;0;0;
73517;PMS5003;61766;60.318;25.044;2023-04-20T11:41:39;0;0;
73517;PMS5003;61766;60.318;25.044;2023-04-20T11:44:05;0;0;
73517;PMS5003;61766;60.318;25.044;2023-04-20T11:46:32;0;0;
73517;PMS5003;61766;60.318;25.044;2023-04-20T11:48:56;2;2;
73517;PMS5003;61766;60.318;25.044;2023-04-20T11:51:22;2;2;
73517;PMS5003;61766;60.318;25.044;2023-04-20T11:53:47;1;1;
73517;PMS5003;61766;60.318;25.044;2023-04-20T11:56:13;1;1;
73517;PMS5003;61766;60.318;25.044;2023-04-20T11:58:39;1;1;
73517;PMS5003;61766;60.318;25.044;2023-04-20T12:01:05;1;1;
73517;PMS5003;61766;60.318;25.044;2023-04-20T12:03:30;1;1;
73517;PMS5003;61766;60.318;25.044;2023-04-20T12:05:56;1;1;
73517;PMS5003;61766;60.318;25.044;2023-04-20T12:08:22;1;1;
73517;PMS5003;61766;60.318;25.044;2023-04-20T12:10:47;1;1;
73517;PMS5003;61766;60.318;25.044;2023-04-20T12:13:13;3;2;
73517;PMS5003;61766;60.318;25.044;2023-04-20T12:15:39;1;1;
73517;PMS5003;61766;60.318;25.044;2023-04-20T12:18:04;1;1;
73517;PMS5003;61766;60.318;25.044;2023-04-20T12:20:30;1;1;
73517;PMS5003;61766;60.318;25.044;2023-04-20T12:22:56;2;1;
73517;PMS5003;61766;60.318;25.044;2023-04-20T12:25:21;1;1;
73517;PMS5003;61766;60.318;25.044;2023-04-20T12:27:47;1;0;
73517;PMS5003;61766;60.318;25.044;2023-04-20T12:30:13;1;0;
73517;PMS5003;61766;60.318;25.044;2023-04-20T12:32:38;0;0;
73517;PMS5003;61766;60.318;25.044;2023-04-20T12:35:04;0;0;
73517;PMS5003;61766;60.318;25.044;2023-04-20T12:37:30;1;1;
73517;PMS5003;61766;60.318;25.044;2023-04-20T12:39:56;2;1;
73517;PMS5003;61766;60.318;25.044;2023-04-20T12:42:21;2;2;
73517;PMS5003;61766;60.318;25.044;2023-04-20T12:44:47;1;1;
73517;PMS5003;61766;60.318;25.044;2023-04-20T12:47:13;1;1;
73517;PMS5003;61766;60.318;25.044;2023-04-20T12:49:38;0;0;
73517;PMS5003;61766;60.318;25.044;2023-04-20T12:52:04;0;0;
73517;PMS5003;61766;60.318;25.044;2023-04-20T12:54:30;1;1;
73517;PMS5003;61766;60.318;25.044;2023-04-20T12:56:55;0;0;
73517;PMS5003;61766;60.318;25.044;2023-04-20T12:59:21;1;1;
73517;PMS5003;61766;60.318;25.044;2023-04-20T13:01:47;0;0;
73517;PMS5003;61766;60.318;25.044;2023-04-20T13:04:13;1;1;
73517;PMS5003;61766;60.318;25.044;2023-04-20T13:06:38;1;1;
73517;PMS5003;61766;60.318;25.044;2023-04-20T13:09:04;2;2;
73517;PMS5003;61766;60.318;25.044;2023-04-20T13:11:30;1;1;
73517;PMS5003;61766;60.318;25.044;2023-04-20T13:13:55;1;1;
73517;PMS5003;61766;60.318;25.044;2023-04-20T13:16:21;1;1;
73517;PMS5003;61766;60.318;25.044;2023-04-20T13:18:47;1;1;
73517;PMS5003;61766;60.318;25.044;2023-04-20T13:21:13;0;0;
73517;PMS5003;61766;60.318;25.044;2023-04-20T13:23:38;1;1;
73517;PMS5003;61766;60.318;25.044;2023-04-20T13:26:04;1;1;
73517;PMS5003;61766;60.318;25.044;2023-04-20T13:28:30;0;0;
73517;PMS5003;61766;60.318;25.044;2023-04-20T13:30:55;2;1;
73517;PMS5003;61766;60.318;25.044;2023-04-20T13:33:21;1;1;
73517;PMS5003;61766;60.318;25.044;2023-04-20T13:35:47;1;1;
73517;PMS5003;61766;60.318;25.044;2023-04-20T13:38:12;1;1;
73517;PMS5003;61766;60.318;25.044;2023-04-20T13:40:38;1;1;
73517;PMS5003;61766;60.318;25.044;2023-04-20T13:43:04;2;0;
73517;PMS5003;61766;60.318;25.044;2023-04-20T13:45:29;1;1;
73517;PMS5003;61766;60.318;25.044;2023-04-20T13:47:55;1;1;
73517;PMS5003;61766;60.318;25.044;2023-04-20T13:50:21;0;0;
73517;PMS5003;61766;60.318;25.044;2023-04-20T13:52:47;3;3;
73517;PMS5003;61766;60.318;25.044;2023-04-20T13:55:12;0;0;
73517;PMS5003;61766;60.318;25.044;2023-04-20T13:57:38;2;2;
73517;PMS5003;61766;60.318;25.044;2023-04-20T14:00:04;1;1;
73517;PMS5003;61766;60.318;25.044;2023-04-20T14:02:29;1;1;
73517;PMS5003;61766;60.318;25.044;2023-04-20T14:04:56;1;1;
73517;PMS5003;61766;60.318;25.044;2023-04-20T14:07:21;0;0;
73517;PMS5003;61766;60.318;25.044;2023-04-20T14:09:46;0;0;
73517;PMS5003;61766;60.318;25.044;2023-04-20T14:12:12;2;1;
73517;PMS5003;61766;60.318;25.044;2023-04-20T14:14:38;1;1;
73517;PMS5003;61766;60.318;25.044;2023-04-20T14:17:04;1;1;
73517;PMS5003;61766;60.318;25.044;2023-04-20T14:19:29;0;0;
73517;PMS5003;61766;60.318;25.044;2023-04-20T14:21:55;1;1;
73517;PMS5003;61766;60.318;25.044;2023-04-20T14:24:20;1;1;
73517;PMS5003;61766;60.318;25.044;2023-04-20T14:26:46;0;0;
73517;PMS5003;61766;60.318;25.044;2023-04-20T14:29:12;1;1;
73517;PMS5003;61766;60.318;25.044;2023-04-20T14:31:37;0;0;
73517;PMS5003;61766;60.318;25.044;2023-04-20T14:34:03;0;0;
73517;PMS5003;61766;60.318;25.044;2023-04-20T14:36:29;1;1;
73517;PMS5003;61766;60.318;25.044;2023-04-20T14:38:55;1;1;
73517;PMS5003;61766;60.318;25.044;2023-04-20T14:41:20;2;2;
73517;PMS5003;61766;60.318;25.044;2023-04-20T14:43:46;1;1;
73517;PMS5003;61766;60.318;25.044;2023-04-20T14:46:12;1;1;
73517;PMS5003;61766;60.318;25.044;2023-04-20T14:48:37;0;0;
73517;PMS5003;61766;60.318;25.044;2023-04-20T14:51:03;0;0;
73517;PMS5003;61766;60.318;25.044;2023-04-20T14:53:29;1;1;
73517;PMS5003;61766;60.318;25.044;2023-04-20T14:55:54;1;1;
73517;PMS5003;61766;60.318;25.044;2023-04-20T14:58:20;1;1;
73517;PMS5003;61766;60.318;25.044;2023-04-20T15:00:46;1;1;
73517;PMS5003;61766;60.318;25.044;2023-04-20T15:03:12;0;0;
73517;PMS5003;61766;60.318;25.044;2023-04-20T15:05:38;1;1;
73517;PMS5003;61766;60.318;25.044;2023-04-20T15:08:03;1;1;
73517;PMS5003;61766;60.318;25.044;2023-04-20T15:10:29;0;0;
73517;PMS5003;61766;60.318;25.044;2023-04-20T15:12:54;0;0;
73517;PMS5003;61766;60.318;25.044;2023-04-20T15:15:20;0;0;
73517;PMS5003;61766;60.318;25.044;2023-04-20T15:17:46;0;0;
73517;PMS5003;61766;60.318;25.044;2023-04-20T15:20:12;0;0;
73517;PMS5003;61766;60.318;25.044;2023-04-20T15:22:37;2;2;
73517;PMS5003;61766;60.318;25.044;2023-04-20T15:25:03;0;0;
73517;PMS5003;61766;60.318;25.044;2023-04-20T15:27:29;1;1;
73517;PMS5003;61766;60.318;25.044;2023-04-20T15:29:54;2;1;
73517;PMS5003;61766;60.318;25.044;2023-04-20T15:32:20;0;0;
73517;PMS5003;61766;60.318;25.044;2023-04-20T15:34:46;1;1;
73517;PMS5003;61766;60.318;25.044;2023-04-20T15:37:12;1;1;
73517;PMS5003;61766;60.318;25.044;2023-04-20T15:39:38;1;1;
73517;PMS5003;61766;60.318;25.044;2023-04-20T15:42:03;0;0;
73517;PMS5003;61766;60.318;25.044;2023-04-20T15:44:29;1;1;
73517;PMS5003;61766;60.318;25.044;2023-04-20T15:46:54;1;0;
73517;PMS5003;61766;60.318;25.044;2023-04-20T15:49:20;2;1;
73517;PMS5003;61766;60.318;25.044;2023-04-20T15:51:46;1;0;
73517;PMS5003;61766;60.318;25.044;2023-04-20T15:54:12;1;0;
73517;PMS5003;61766;60.318;25.044;2023-04-20T15:56:37;0;0;
73517;PMS5003;61766;60.318;25.044;2023-04-20T15:59:03;0;0;
73517;PMS5003;61766;60.318;25.044;2023-04-20T16:01:29;0;0;
73517;PMS5003;61766;60.318;25.044;2023-04-20T16:03:55;0;0;
73517;PMS5003;61766;60.318;25.044;2023-04-20T16:06:20;1;1;
73517;PMS5003;61766;60.318;25.044;2023-04-20T16:08:47;1;1;
73517;PMS5003;61766;60.318;25.044;2023-04-20T16:11:12;1;1;
73517;PMS5003;61766;60.318;25.044;2023-04-20T16:13:38;1;1;
73517;PMS5003;61766;60.318;25.044;2023-04-20T16:16:04;3;2;
73517;PMS5003;61766;60.318;25.044;2023-04-20T16:18:29;1;1;
73517;PMS5003;61766;60.318;25.044;2023-04-20T16:20:55;3;1;
73517;PMS5003;61766;60.318;25.044;2023-04-20T16:23:21;1;1;
73517;PMS5003;61766;60.318;25.044;2023-04-20T16:25:46;1;1;
73517;PMS5003;61766;60.318;25.044;2023-04-20T16:28:12;1;1;
73517;PMS5003;61766;60.318;25.044;2023-04-20T16:30:38;2;1;
73517;PMS5003;61766;60.318;25.044;2023-04-20T16:33:04;1;1;
73517;PMS5003;61766;60.318;25.044;2023-04-20T16:35:29;1;1;